Time;durP1;ratioP1;P1;durP2;ratioP2;P2;SDS_P1;SDS_P2;PMS_P1;PMS_P2;Temp;Humidity;BMP_temperature;BMP_pressure;BME280_temperature;BME280_humidity;BME280_pressure;Samples;Min_cycle;Max_cycle;Signal;HPM_P1;HPM_P2
2024/03/14 00:01:22;;;;;;;8.60;4.93;;;;;;;9.00;91.90;95614.09;5099655;28;20657;-78
2024/03/14 00:03:48;;;;;;;5.80;3.70;;;;;;;8.94;92.21;95615.47;5064821;28;20195;-78
2024/03/14 00:06:13;;;;;;;6.00;4.17;;;;;;;8.83;92.35;95617.34;5080466;28;20236;-78
2024/03/14 00:08:39;;;;;;;6.07;4.07;;;;;;;8.82;92.29;95602.75;5062345;28;20282;-78
2024/03/14 00:11:06;;;;;;;7.87;5.10;;;;;;;8.76;92.36;95611.91;5079141;28;20188;-78
2024/03/14 00:13:33;;;;;;;6.50;4.13;;;;;;;8.67;92.24;95615.31;5098086;28;20180;-78
2024/03/14 00:15:59;;;;;;;5.20;3.63;;;;;;;8.63;92.22;95616.50;5081407;28;20251;-78
2024/03/14 00:18:25;;;;;;;3.90;3.60;;;;;;;8.56;92.15;95618.81;5081670;28;20259;-78
2024/03/14 00:20:50;;;;;;;3.13;2.83;;;;;;;8.49;92.54;95618.53;5080398;28;20696;-78
2024/03/14 00:23:15;;;;;;;3.47;3.17;;;;;;;8.48;92.91;95611.72;5080588;28;20247;-77
2024/03/14 00:25:41;;;;;;;3.60;3.30;;;;;;;8.49;93.03;95615.13;5079001;28;20697;-78
2024/03/14 00:28:09;;;;;;;3.40;3.10;;;;;;;8.47;92.80;95610.06;5078175;28;20658;-77
2024/03/14 00:30:35;;;;;;;2.93;2.67;;;;;;;8.42;93.13;95607.06;5078370;28;20259;-78
2024/03/14 00:33:00;;;;;;;3.80;2.90;;;;;;;8.40;93.21;95605.59;5063173;28;20227;-78
2024/03/14 00:35:27;;;;;;;2.97;2.70;;;;;;;8.34;93.50;95608.66;5064314;28;20176;-78
2024/03/14 00:37:53;;;;;;;3.30;3.00;;;;;;;8.30;93.54;95600.31;5065211;28;20188;-78
2024/03/14 00:40:18;;;;;;;3.23;2.93;;;;;;;8.37;92.67;95603.25;5064360;28;20188;-78
2024/03/14 00:42:49;;;;;;;3.10;2.80;;;;;;;8.29;92.45;95601.28;5075142;28;20197;-77
2024/03/14 00:45:15;;;;;;;2.90;2.70;;;;;;;8.26;92.72;95598.97;5064601;28;20203;-78
2024/03/14 00:47:40;;;;;;;3.60;3.00;;;;;;;8.26;92.99;95591.19;5079549;28;20184;-77
2024/03/14 00:50:08;;;;;;;4.27;2.87;;;;;;;8.26;93.02;95598.16;5063577;28;20280;-78
2024/03/14 00:52:37;;;;;;;2.63;2.43;;;;;;;8.28;93.41;95597.06;5061942;28;20173;-78
2024/03/14 00:55:05;;;;;;;4.07;2.90;;;;;;;8.26;93.09;95593.78;5078152;28;20245;-78
2024/03/14 00:57:30;;;;;;;3.93;2.80;;;;;;;8.29;93.33;95592.69;5079569;28;20303;-78
2024/03/14 00:59:55;;;;;;;3.97;3.20;;;;;;;8.33;93.33;95591.50;5076778;28;20188;-78
2024/03/14 01:02:21;;;;;;;3.57;3.27;;;;;;;8.33;94.10;95596.69;5078910;28;20215;-78
2024/03/14 01:04:49;;;;;;;3.57;2.93;;;;;;;8.40;93.73;95590.06;5078205;28;20225;-78
2024/03/14 01:07:15;;;;;;;4.10;3.33;;;;;;;8.37;95.50;95593.72;5063623;28;20238;-78
2024/03/14 01:09:40;;;;;;;4.40;3.10;;;;;;;8.49;93.94;95584.06;5076318;28;20185;-77
2024/03/14 01:12:05;;;;;;;3.67;3.17;;;;;;;8.47;94.03;95588.53;5060275;28;20507;-78
2024/03/14 01:14:31;;;;;;;5.73;3.23;;;;;;;8.49;94.58;95586.66;5097832;28;20204;-78
2024/03/14 01:16:56;;;;;;;3.40;3.10;;;;;;;8.53;94.82;95582.84;5098877;28;20200;-78
2024/03/14 01:19:21;;;;;;;4.10;3.23;;;;;;;8.51;94.65;95579.56;5064529;28;20196;-77
2024/03/14 01:21:47;;;;;;;4.30;3.60;;;;;;;8.58;95.15;95580.69;5063292;28;20194;-78
2024/03/14 01:24:13;;;;;;;3.90;3.50;;;;;;;8.60;94.45;95568.41;5063372;28;20279;-78
2024/03/14 01:26:38;;;;;;;3.43;3.10;;;;;;;8.58;94.76;95565.16;5079078;28;20208;-77
2024/03/14 01:29:04;;;;;;;3.33;3.03;;;;;;;8.54;93.83;95562.97;5078531;28;20195;-78
2024/03/14 01:31:29;;;;;;;3.87;3.30;;;;;;;8.54;93.79;95558.59;5077669;28;20711;-78
2024/03/14 01:33:54;;;;;;;2.87;2.67;;;;;;;8.46;93.53;95556.69;5062671;28;20794;-78
2024/03/14 01:36:22;;;;;;;3.03;2.77;;;;;;;8.41;93.73;95563.22;5081106;28;20196;-78
2024/03/14 01:38:48;;;;;;;3.23;2.93;;;;;;;8.35;93.89;95558.56;5078537;28;20188;-78
2024/03/14 01:41:20;;;;;;;5.60;3.07;;;;;;;8.36;94.01;95547.28;5079763;28;20191;-78
2024/03/14 01:43:56;;;;;;;3.63;3.33;;;;;;;8.38;94.03;95553.13;5097491;28;20199;-78
2024/03/14 01:46:22;;;;;;;3.93;3.40;;;;;;;8.37;94.32;95551.50;5098413;28;20550;-77
2024/03/14 01:48:47;;;;;;;3.80;3.23;;;;;;;8.33;94.39;95550.09;5080217;28;20184;-78
2024/03/14 01:51:13;;;;;;;3.20;2.90;;;;;;;8.30;94.20;95540.81;5078780;28;20191;-77
2024/03/14 01:53:38;;;;;;;3.63;3.33;;;;;;;8.31;94.31;95541.66;5059600;28;20236;-77
2024/03/14 01:56:04;;;;;;;3.63;3.17;;;;;;;8.33;94.30;95537.97;5078093;28;20262;-78
2024/03/14 01:58:29;;;;;;;4.20;2.80;;;;;;;8.32;94.09;95527.78;5044809;28;20220;-78
2024/03/14 02:00:55;;;;;;;3.20;2.83;;;;;;;8.23;94.54;95519.84;5075976;28;20196;-78
2024/03/14 02:03:21;;;;;;;4.00;2.63;;;;;;;8.21;94.03;95524.31;5079181;28;20188;-78
2024/03/14 02:05:50;;;;;;;2.80;2.60;;;;;;;8.21;94.17;95537.25;5061853;28;20246;-78
2024/03/14 02:08:16;;;;;;;3.20;2.90;;;;;;;8.18;93.88;95524.59;5078501;28;20222;-78
2024/03/14 02:10:41;;;;;;;3.50;3.10;;;;;;;8.15;93.63;95522.28;5081115;28;20188;-77
2024/03/14 02:13:07;;;;;;;3.30;3.00;;;;;;;8.09;93.74;95514.25;5077549;28;20673;-78
2024/03/14 02:15:32;;;;;;;2.50;2.30;;;;;;;8.13;94.02;95524.19;5076981;28;20172;-78
2024/03/14 02:17:58;;;;;;;2.97;2.70;;;;;;;7.98;95.13;95519.53;5075303;28;20266;-77
2024/03/14 02:20:23;;;;;;;4.00;2.63;;;;;;;8.01;94.62;95525.25;5064101;28;20196;-77
2024/03/14 02:22:48;;;;;;;3.00;2.70;;;;;;;7.99;94.41;95521.16;5063318;28;20639;-78
2024/03/14 02:25:14;;;;;;;3.17;2.90;;;;;;;7.98;94.41;95530.69;5079702;28;20180;-77
2024/03/14 02:27:40;;;;;;;3.03;2.80;;;;;;;7.94;94.25;95530.13;5060382;28;20196;-77
2024/03/14 02:30:06;;;;;;;4.00;2.83;;;;;;;7.93;94.48;95525.91;5061590;28;20184;-78
2024/03/14 02:32:31;;;;;;;2.90;2.60;;;;;;;8.00;94.10;95522.78;5063023;28;20198;-78
2024/03/14 02:34:57;;;;;;;3.00;2.80;;;;;;;7.88;94.29;95517.72;5057682;28;20187;-78
2024/03/14 02:37:22;;;;;;;3.97;2.73;;;;;;;7.87;93.77;95517.88;5062085;28;20192;-78
2024/03/14 02:39:48;;;;;;;3.27;2.97;;;;;;;7.81;93.91;95518.38;5075186;28;20191;-78
2024/03/14 02:42:14;;;;;;;2.97;2.73;;;;;;;7.79;93.69;95520.28;5078894;28;20180;-78
2024/03/14 02:44:39;;;;;;;3.40;3.10;;;;;;;7.75;93.68;95518.91;5078018;28;20317;-78
2024/03/14 02:47:07;;;;;;;3.20;2.67;;;;;;;7.70;93.71;95513.31;5061252;28;20287;-77
2024/03/14 02:49:33;;;;;;;4.47;3.00;;;;;;;7.69;94.41;95516.84;5079112;28;20172;-78
2024/03/14 02:51:59;;;;;;;3.90;3.50;;;;;;;7.67;94.73;95517.78;5078410;28;20188;-77
2024/03/14 02:54:24;;;;;;;3.63;3.33;;;;;;;7.70;94.49;95515.91;5061215;28;20542;-78
2024/03/14 02:56:50;;;;;;;3.50;3.20;;;;;;;7.71;94.15;95518.34;5075461;28;20264;-78
2024/03/14 02:59:19;;;;;;;4.20;3.80;;;;;;;7.64;95.55;95512.88;5093545;28;20181;-77
2024/03/14 03:01:45;;;;;;;3.40;3.10;;;;;;;7.78;94.36;95511.72;5063368;28;20180;-77
2024/03/14 03:04:10;;;;;;;3.30;2.93;;;;;;;7.86;93.89;95509.31;5060701;28;20223;-78
2024/03/14 03:06:43;;;;;;;3.90;3.50;;;;;;;7.77;94.33;95501.50;5078045;28;20236;-78
2024/03/14 03:09:09;;;;;;;3.73;3.43;;;;;;;7.79;95.10;95504.78;5080885;28;20238;-78
2024/03/14 03:11:35;;;;;;;3.57;3.27;;;;;;;7.80;94.68;95501.25;5064184;28;20184;-78
2024/03/14 03:14:01;;;;;;;4.43;3.90;;;;;;;7.86;94.50;95503.28;5098824;28;20258;-78
2024/03/14 03:16:26;;;;;;;4.13;3.70;;;;;;;7.84;94.80;95506.00;5080477;28;20573;-77
2024/03/14 03:18:52;;;;;;;4.73;3.67;;;;;;;7.82;94.88;95499.34;5100004;28;20182;-78
2024/03/14 03:21:18;;;;;;;4.10;3.70;;;;;;;7.78;95.97;95501.38;5079625;28;20259;-78
2024/03/14 03:23:43;;;;;;;4.10;3.70;;;;;;;7.84;95.86;95500.03;5099479;28;20595;-77
2024/03/14 03:26:09;;;;;;;4.40;4.00;;;;;;;7.83;95.80;95494.03;5064084;28;20234;-77
2024/03/14 03:28:35;;;;;;;6.83;3.90;;;;;;;7.79;96.68;95497.03;5062202;28;20189;-78
2024/03/14 03:31:00;;;;;;;4.40;4.00;;;;;;;7.95;95.27;95503.34;5080126;28;20222;-78
2024/03/14 03:33:27;;;;;;;6.00;4.10;;;;;;;7.97;95.07;95504.97;5081057;28;20181;-78
2024/03/14 03:35:52;;;;;;;4.70;4.13;;;;;;;7.93;94.81;95494.88;5080218;28;20226;-78
2024/03/14 03:38:18;;;;;;;4.23;3.73;;;;;;;7.95;94.64;95494.72;5064911;28;20795;-78
2024/03/14 03:40:43;;;;;;;4.30;3.90;;;;;;;7.93;94.51;95497.47;5078591;28;20188;-78
2024/03/14 03:43:09;;;;;;;4.17;3.77;;;;;;;7.89;94.68;95493.50;5082088;28;20695;-77
2024/03/14 03:45:34;;;;;;;4.47;4.07;;;;;;;7.86;94.61;95498.97;5080168;28;20717;-78
2024/03/14 03:48:00;;;;;;;3.70;3.23;;;;;;;7.90;94.46;95502.91;5082605;28;20232;-77
2024/03/14 03:50:26;;;;;;;4.70;4.00;;;;;;;7.83;94.83;95494.03;5082681;28;20177;-78
2024/03/14 03:52:51;;;;;;;4.53;3.93;;;;;;;7.89;94.87;95497.88;5081551;28;20198;-78
2024/03/14 03:55:17;;;;;;;4.27;3.70;;;;;;;7.89;94.39;95495.28;5059757;28;20262;-77
2024/03/14 03:57:43;;;;;;;5.13;3.63;;;;;;;7.86;94.51;95491.19;5065510;28;20191;-78
2024/03/14 04:00:32;;;;;;;5.63;3.40;;;;;;;7.80;94.60;95491.72;5080716;28;20293;-77
2024/03/14 04:02:55;;;;;;;4.90;4.00;;;;;;;7.83;94.44;95496.63;5080503;28;20184;-78
2024/03/14 04:05:21;;;;;;;4.40;3.93;;;;;;;7.79;94.65;95494.44;5080946;28;20673;-78
2024/03/14 04:07:49;;;;;;;4.30;3.90;;;;;;;7.63;96.00;95490.56;5062597;28;20223;-78
2024/03/14 04:10:15;;;;;;;5.33;4.03;;;;;;;7.74;95.28;95496.59;5064895;28;20208;-77
2024/03/14 04:12:40;;;;;;;5.00;4.17;;;;;;;7.72;95.83;95491.56;5098762;28;20195;-78
2024/03/14 04:15:06;;;;;;;5.00;4.50;;;;;;;7.76;95.97;95489.50;5065063;28;20195;-77
2024/03/14 04:17:33;;;;;;;5.17;4.03;;;;;;;7.77;95.68;95483.41;5082573;28;20197;-77
2024/03/14 04:19:59;;;;;;;4.90;4.10;;;;;;;7.83;95.43;95482.88;5078590;28;20188;-78
2024/03/14 04:22:25;;;;;;;5.27;4.20;;;;;;;7.85;94.93;95468.84;5063762;28;20275;-78
2024/03/14 04:24:51;;;;;;;4.33;3.93;;;;;;;7.87;95.25;95471.34;5063233;28;20285;-78
2024/03/14 04:27:17;;;;;;;4.70;4.07;;;;;;;7.94;94.69;95472.41;5066486;28;20213;-78
2024/03/14 04:29:42;;;;;;;4.80;4.30;;;;;;;7.88;94.94;95462.63;5062604;28;20189;-78
2024/03/14 04:32:12;;;;;;;4.83;4.33;;;;;;;7.90;95.02;95458.94;5079932;28;20184;-78
2024/03/14 04:34:38;;;;;;;5.70;4.70;;;;;;;7.88;95.43;95463.44;5065654;28;20188;-78
2024/03/14 04:37:06;;;;;;;4.70;4.20;;;;;;;7.84;95.39;95459.47;5078682;28;20208;-78
2024/03/14 04:39:32;;;;;;;6.23;4.10;;;;;;;7.93;94.95;95460.44;5063949;28;20192;-77
2024/03/14 04:41:58;;;;;;;4.33;3.93;;;;;;;7.86;94.77;95452.41;5099656;28;20275;-77
2024/03/14 04:44:23;;;;;;;5.37;4.00;;;;;;;7.89;94.40;95454.72;5058796;28;20269;-77
2024/03/14 04:46:54;;;;;;;5.13;3.40;;;;;;;7.89;94.51;95446.16;5078760;28;20204;-78
2024/03/14 04:49:20;;;;;;;6.17;3.43;;;;;;;7.79;94.87;95453.09;5078266;28;20693;-77
2024/03/14 04:51:45;;;;;;;4.30;3.90;;;;;;;7.77;95.06;95447.19;5062327;28;20196;-78
2024/03/14 04:54:10;;;;;;;6.07;3.93;;;;;;;7.72;95.44;95457.13;5077699;28;21010;-78
2024/03/14 04:56:36;;;;;;;4.30;3.90;;;;;;;7.75;94.64;95456.88;5078821;28;20208;-78
2024/03/14 04:59:01;;;;;;;4.50;4.10;;;;;;;7.64;95.27;95460.38;5095985;28;20192;-77
2024/03/14 05:01:29;;;;;;;4.37;3.60;;;;;;;7.57;95.60;95459.25;5078059;28;20180;-78
2024/03/14 05:03:56;;;;;;;10.07;7.13;;;;;;;7.56;95.59;95462.81;5063493;28;20212;-78
2024/03/14 05:06:22;;;;;;;10.37;8.57;;;;;;;7.51;96.03;95465.78;5095093;28;20213;-77
2024/03/14 05:08:48;;;;;;;9.00;8.10;;;;;;;7.44;96.90;95466.44;5077693;28;20209;-78
2024/03/14 05:11:13;;;;;;;7.80;6.33;;;;;;;7.29;97.57;95465.97;5063311;28;20226;-77
2024/03/14 05:13:39;;;;;;;7.90;6.03;;;;;;;7.33;97.03;95464.75;5060012;28;20196;-77
2024/03/14 05:16:04;;;;;;;6.23;5.63;;;;;;;7.25;98.06;95467.19;5063696;28;20204;-78
2024/03/14 05:18:31;;;;;;;8.50;4.60;;;;;;;7.23;97.51;95469.88;5075981;28;20249;-78
2024/03/14 05:20:57;;;;;;;9.70;4.67;;;;;;;7.09;97.95;95471.03;5059063;28;20234;-78
2024/03/14 05:23:22;;;;;;;4.50;4.10;;;;;;;7.09;97.61;95465.88;5063044;28;20180;-77
2024/03/14 05:25:47;;;;;;;4.13;3.73;;;;;;;7.18;97.45;95468.63;5079026;28;20204;-78
2024/03/14 05:28:16;;;;;;;3.80;3.50;;;;;;;7.28;96.71;95464.31;5058099;28;20207;-78
2024/03/14 05:30:42;;;;;;;5.60;4.63;;;;;;;7.21;96.75;95465.78;5074208;28;20611;-78
2024/03/14 05:33:07;;;;;;;5.40;4.80;;;;;;;7.22;96.80;95468.22;5080138;28;20184;-78
2024/03/14 05:35:32;;;;;;;7.37;5.63;;;;;;;7.10;97.22;95462.34;5076968;28;20697;-77
2024/03/14 05:37:58;;;;;;;7.80;5.27;;;;;;;7.13;97.18;95460.44;5079931;28;20181;-78
2024/03/14 05:40:23;;;;;;;7.07;4.90;;;;;;;7.13;97.22;95465.59;5061571;28;20191;-78
2024/03/14 05:42:48;;;;;;;7.27;4.77;;;;;;;7.01;97.72;95454.56;5078413;28;20681;-78
2024/03/14 05:45:17;;;;;;;5.50;4.00;;;;;;;7.04;97.37;95460.25;5058632;28;20275;-79
2024/03/14 05:47:42;;;;;;;4.40;3.80;;;;;;;7.01;97.75;95460.53;5062921;28;20227;-78
2024/03/14 05:50:09;;;;;;;4.37;3.97;;;;;;;6.99;97.13;95457.25;5078407;28;20670;-78
2024/03/14 05:52:35;;;;;;;4.10;3.80;;;;;;;6.97;96.89;95451.38;5082195;28;20180;-78
2024/03/14 05:55:01;;;;;;;4.23;3.40;;;;;;;6.93;96.95;95449.22;5078299;28;20199;-78
2024/03/14 05:57:27;;;;;;;3.60;3.30;;;;;;;6.88;97.35;95452.16;5059137;28;20224;-77
2024/03/14 05:59:52;;;;;;;4.07;3.67;;;;;;;6.71;98.49;95455.31;5073643;28;20564;-77
2024/03/14 06:02:18;;;;;;;4.13;3.73;;;;;;;6.63;98.63;95457.72;5078297;28;20176;-77
2024/03/14 06:04:44;;;;;;;3.60;3.30;;;;;;;6.72;98.48;95455.22;5061070;28;20180;-77
2024/03/14 06:07:09;;;;;;;3.70;3.40;;;;;;;6.88;97.28;95459.91;5073140;28;20235;-76
2024/03/14 06:09:44;;;;;;;3.30;3.00;;;;;;;6.90;96.66;95459.78;5053284;28;20173;-76
2024/03/14 06:12:09;;;;;;;3.23;2.87;;;;;;;6.96;96.07;95460.09;5053864;28;20211;-76
2024/03/14 06:14:35;;;;;;;2.73;2.53;;;;;;;6.99;95.73;95454.69;5053588;28;20173;-77
2024/03/14 06:17:02;;;;;;;2.97;2.73;;;;;;;6.92;95.41;95452.75;5058934;28;20192;-77
2024/03/14 06:19:27;;;;;;;3.03;2.73;;;;;;;7.08;95.00;95459.06;5089032;28;20168;-76
2024/03/14 06:21:53;;;;;;;2.93;2.40;;;;;;;7.04;94.96;95451.69;5073421;28;20192;-76
2024/03/14 06:24:18;;;;;;;3.03;2.83;;;;;;;7.04;94.75;95451.69;5073642;28;20177;-76
2024/03/14 06:26:45;;;;;;;3.07;2.83;;;;;;;7.12;93.80;95458.81;5073207;28;20208;-77
2024/03/14 06:29:10;;;;;;;3.97;2.83;;;;;;;7.03;94.40;95455.22;5072410;28;20186;-77
2024/03/14 06:31:36;;;;;;;2.90;2.70;;;;;;;7.07;93.99;95454.88;5077111;28;20646;-76
2024/03/14 06:34:01;;;;;;;2.90;2.63;;;;;;;7.19;93.50;95449.59;5058549;28;20215;-77
2024/03/14 06:36:26;;;;;;;2.67;2.43;;;;;;;7.03;93.42;95455.22;5072211;28;20320;-76
2024/03/14 06:38:53;;;;;;;2.60;2.00;;;;;;;7.27;93.16;95455.75;5081298;28;20561;-76
2024/03/14 06:41:19;;;;;;;3.50;2.57;;;;;;;7.34;92.58;95451.72;5072553;28;20681;-77
2024/03/14 06:43:44;;;;;;;2.47;2.13;;;;;;;7.14;93.32;95454.31;5085978;28;20819;-77
2024/03/14 06:46:11;;;;;;;3.03;2.73;;;;;;;7.09;92.80;95460.72;5085982;28;20200;-76
2024/03/14 06:48:37;;;;;;;3.00;2.70;;;;;;;7.24;93.15;95453.41;5076367;28;20173;-77
2024/03/14 06:51:02;;;;;;;3.10;2.80;;;;;;;7.02;94.02;95454.41;5069079;28;20199;-77
2024/03/14 06:53:27;;;;;;;3.77;2.77;;;;;;;7.41;92.30;95452.00;5063902;28;20192;-78
2024/03/14 06:55:53;;;;;;;3.30;2.67;;;;;;;7.51;91.86;95459.78;5060276;28;20212;-78
2024/03/14 06:58:18;;;;;;;3.23;2.80;;;;;;;7.74;90.81;95455.22;5078560;28;20201;-78
2024/03/14 07:00:44;;;;;;;3.33;2.83;;;;;;;7.74;90.41;95460.41;5069823;28;20184;-84
2024/03/14 07:03:09;;;;;;;3.00;2.70;;;;;;;7.95;89.79;95455.94;5051310;28;21057;-76
2024/03/14 07:05:36;;;;;;;3.00;2.60;;;;;;;8.01;89.07;95455.41;5072689;28;20216;-76
2024/03/14 07:08:03;;;;;;;3.50;3.07;;;;;;;8.15;88.87;95467.97;5074195;28;20207;-76
2024/03/14 07:10:29;;;;;;;3.53;3.17;;;;;;;8.18;88.07;95464.28;5073398;28;20184;-76
2024/03/14 07:12:57;;;;;;;3.47;3.17;;;;;;;8.23;87.46;95470.72;5071576;28;20188;-76
2024/03/14 07:15:22;;;;;;;3.40;3.07;;;;;;;8.36;87.35;95473.03;5071088;28;20272;-76
2024/03/14 07:17:48;;;;;;;3.23;2.93;;;;;;;8.54;86.90;95470.59;5055096;28;20283;-76
2024/03/14 07:20:16;;;;;;;3.50;2.83;;;;;;;8.66;85.76;95472.09;5067206;28;20227;-76
2024/03/14 07:22:45;;;;;;;2.97;2.67;;;;;;;8.85;85.90;95473.84;5087597;28;20271;-76
2024/03/14 07:25:17;;;;;;;2.93;2.57;;;;;;;8.92;85.52;95474.09;5085246;28;20241;-76
2024/03/14 07:27:46;;;;;;;3.53;2.90;;;;;;;8.69;86.05;95465.81;5070230;28;20208;-76
2024/03/14 07:30:14;;;;;;;3.60;3.00;;;;;;;8.75;86.10;95471.28;5067182;28;20224;-76
2024/03/14 07:32:41;;;;;;;3.10;2.80;;;;;;;8.95;85.93;95472.06;5073949;28;20188;-76
2024/03/14 07:35:07;;;;;;;4.03;2.60;;;;;;;9.02;84.82;95469.72;5070422;28;20606;-76
2024/03/14 07:37:34;;;;;;;2.40;2.20;;;;;;;9.00;85.25;95472.44;5068797;28;20201;-77
2024/03/14 07:39:59;;;;;;;2.93;2.60;;;;;;;9.12;84.82;95473.13;5072205;28;20188;-77
2024/03/14 07:42:25;;;;;;;3.00;2.70;;;;;;;8.98;85.04;95470.94;5073127;28;20199;-76
2024/03/14 07:44:50;;;;;;;2.93;2.50;;;;;;;8.92;84.73;95463.72;5086227;28;20184;-76
2024/03/14 07:47:19;;;;;;;3.27;2.60;;;;;;;8.86;85.32;95464.31;5071100;28;20290;-76
2024/03/14 07:49:46;;;;;;;2.93;2.60;;;;;;;8.58;87.13;95465.97;5057948;28;20185;-76
2024/03/14 07:52:11;;;;;;;2.50;2.30;;;;;;;8.83;85.58;95465.38;5073523;28;20187;-77
2024/03/14 07:54:38;;;;;;;2.90;2.53;;;;;;;8.88;85.96;95457.22;5047573;28;20181;-75
2024/03/14 07:57:03;;;;;;;3.23;2.70;;;;;;;9.01;85.49;95452.53;5067246;28;20296;-76
2024/03/14 07:59:29;;;;;;;3.30;3.00;;;;;;;9.08;85.23;95458.78;5067266;28;20280;-77
2024/03/14 08:01:54;;;;;;;3.63;2.83;;;;;;;8.97;85.27;95458.97;5072349;28;20196;-77
2024/03/14 08:04:23;;;;;;;3.33;3.03;;;;;;;9.18;85.02;95462.16;5086835;28;20187;-77
2024/03/14 08:06:49;;;;;;;2.70;2.50;;;;;;;9.08;85.84;95458.78;5075828;28;20738;-76
2024/03/14 08:09:14;;;;;;;3.20;2.90;;;;;;;9.32;85.23;95453.94;5092535;28;20218;-78
2024/03/14 08:11:41;;;;;;;2.70;2.33;;;;;;;9.24;85.60;95460.78;5099903;28;20204;-77
2024/03/14 08:14:07;;;;;;;2.57;2.33;;;;;;;9.49;84.79;95459.34;5083482;28;20193;-78
2024/03/14 08:16:32;;;;;;;2.40;2.20;;;;;;;9.47;84.86;95464.69;5077908;28;20292;-79
2024/03/14 08:18:58;;;;;;;2.40;2.20;;;;;;;9.57;84.14;95455.09;5071013;28;20201;-76
2024/03/14 08:21:28;;;;;;;2.40;2.20;;;;;;;9.43;86.05;95462.50;5069538;28;20239;-78
2024/03/14 08:23:54;;;;;;;2.10;1.90;;;;;;;9.72;85.12;95463.22;5073831;28;20275;-77
2024/03/14 08:26:19;;;;;;;3.00;2.20;;;;;;;9.81;84.45;95469.31;5087316;28;20204;-77
2024/03/14 08:28:45;;;;;;;2.87;2.17;;;;;;;10.04;84.02;95467.09;5096559;28;20203;-78
2024/03/14 08:31:16;;;;;;;2.73;2.50;;;;;;;10.06;83.93;95468.59;5086223;28;20186;-78
2024/03/14 08:33:46;;;;;;;2.47;2.07;;;;;;;10.24;83.39;95471.22;5064349;28;20271;-79
2024/03/14 08:36:12;;;;;;;2.10;1.90;;;;;;;10.15;83.98;95467.72;5084902;28;20189;-79
2024/03/14 08:38:38;;;;;;;1.63;1.53;;;;;;;10.22;83.70;95470.56;5074619;28;20600;-79
2024/03/14 08:41:03;;;;;;;2.50;2.30;;;;;;;10.23;83.85;95472.19;5088307;28;20185;-78
2024/03/14 08:43:30;;;;;;;2.80;2.17;;;;;;;10.44;82.67;95467.56;5067598;28;21465;-79
2024/03/14 08:45:56;;;;;;;2.63;2.27;;;;;;;10.67;82.40;95467.09;5074175;28;20196;-77
2024/03/14 08:48:21;;;;;;;2.33;2.13;;;;;;;10.63;82.51;95466.56;5073791;28;20204;-78
2024/03/14 08:50:47;;;;;;;3.37;2.50;;;;;;;10.94;81.76;95469.56;5074079;28;20211;-78
2024/03/14 08:53:12;;;;;;;2.80;2.53;;;;;;;10.76;82.69;95468.78;5083051;28;20212;-77
2024/03/14 08:55:54;;;;;;;4.27;2.50;;;;;;;10.80;82.20;95464.94;5067494;28;20266;-76
2024/03/14 08:58:25;;;;;;;1.80;1.70;;;;;;;11.24;81.04;95467.50;5074923;28;20198;-78
2024/03/14 09:00:52;;;;;;;3.10;2.03;;;;;;;11.39;80.21;95470.31;5070471;28;20193;-78
2024/03/14 09:03:18;;;;;;;2.83;2.40;;;;;;;11.36;80.25;95471.47;5068733;28;20178;-78
2024/03/14 09:05:44;;;;;;;3.23;2.50;;;;;;;11.68;80.10;95472.59;5085396;28;20207;-78
2024/03/14 09:08:10;;;;;;;1.50;1.40;;;;;;;11.73;79.79;95473.75;5088135;28;20185;-76
2024/03/14 09:10:36;;;;;;;2.70;1.93;;;;;;;11.97;78.68;95473.06;5085891;28;20200;-77
2024/03/14 09:13:01;;;;;;;1.47;1.33;;;;;;;11.99;78.05;95475.50;5073184;28;20191;-76
2024/03/14 09:15:27;;;;;;;2.63;1.87;;;;;;;12.17;77.74;95471.00;5072913;28;20203;-76
2024/03/14 09:17:53;;;;;;;2.60;1.33;;;;;;;12.14;77.54;95472.13;5076262;28;20172;-77
2024/03/14 09:20:21;;;;;;;1.33;1.23;;;;;;;12.05;77.43;95477.50;5093062;28;20192;-77
2024/03/14 09:22:53;;;;;;;1.37;1.27;;;;;;;12.36;75.87;95481.13;5064551;28;20195;-77
2024/03/14 09:25:19;;;;;;;2.53;1.33;;;;;;;12.43;76.55;95481.31;5071972;28;20180;-77
2024/03/14 09:27:45;;;;;;;1.27;1.10;;;;;;;12.71;75.50;95480.03;5069550;28;20228;-76
2024/03/14 09:30:11;;;;;;;2.30;1.40;;;;;;;12.70;75.75;95481.00;5090854;28;20188;-77
2024/03/14 09:32:37;;;;;;;1.67;1.30;;;;;;;12.75;73.85;95483.97;5076162;28;20181;-77
2024/03/14 09:35:05;;;;;;;1.60;1.50;;;;;;;12.83;74.95;95477.94;5075414;28;20184;-77
2024/03/14 09:37:31;;;;;;;1.70;1.30;;;;;;;12.94;74.10;95474.19;5076133;28;20196;-76
2024/03/14 09:39:58;;;;;;;0.87;0.87;;;;;;;13.01;73.43;95473.38;5075032;28;20180;-76
2024/03/14 09:42:25;;;;;;;1.80;1.00;;;;;;;13.01;74.28;95475.97;5074915;28;20184;-77
2024/03/14 09:44:50;;;;;;;1.43;1.30;;;;;;;13.32;73.34;95472.69;5069805;28;20658;-76
2024/03/14 09:47:23;;;;;;;1.30;1.20;;;;;;;13.48;73.37;95477.06;5073926;28;20208;-77
2024/03/14 09:49:53;;;;;;;1.53;1.27;;;;;;;13.52;72.56;95471.34;5056397;28;20797;-77
2024/03/14 09:52:19;;;;;;;2.67;1.20;;;;;;;13.50;72.63;95486.34;5092139;28;20180;-77
2024/03/14 09:54:47;;;;;;;1.20;0.73;;;;;;;13.65;70.25;95473.44;5069899;28;20180;-77
2024/03/14 09:57:12;;;;;;;1.80;1.00;;;;;;;13.64;70.13;95469.19;5076314;28;20212;-77
2024/03/14 09:59:38;;;;;;;1.10;0.90;;;;;;;13.59;70.63;95461.84;5076850;28;20181;-77
2024/03/14 10:02:06;;;;;;;1.10;1.00;;;;;;;13.30;71.26;95470.25;5073171;28;20581;-77
2024/03/14 10:04:31;;;;;;;0.90;0.90;;;;;;;13.63;70.50;95454.53;5060307;28;20259;-77
2024/03/14 10:06:58;;;;;;;1.37;1.00;;;;;;;13.57;70.39;95461.22;5055803;28;20380;-77
2024/03/14 10:09:23;;;;;;;0.80;0.80;;;;;;;13.59;71.28;95463.66;5091310;28;20203;-76
2024/03/14 10:11:55;;;;;;;0.97;0.77;;;;;;;13.92;71.14;95460.94;5075123;28;20188;-77
2024/03/14 10:14:22;;;;;;;0.70;0.70;;;;;;;13.95;68.16;95452.75;5059101;28;20180;-77
2024/03/14 10:16:50;;;;;;;0.97;0.93;;;;;;;13.95;69.99;95452.75;5075180;28;20196;-77
2024/03/14 10:19:16;;;;;;;1.33;0.93;;;;;;;14.02;70.30;95453.69;5077152;28;20185;-76
2024/03/14 10:21:43;;;;;;;1.30;1.00;;;;;;;14.01;69.24;95437.22;5043922;28;20201;-76
2024/03/14 10:24:16;;;;;;;1.87;1.10;;;;;;;14.04;69.65;95449.13;5061965;28;20184;-77
2024/03/14 10:26:42;;;;;;;1.00;0.80;;;;;;;14.30;70.20;95444.38;5061890;28;20204;-76
2024/03/14 10:29:14;;;;;;;0.90;0.90;;;;;;;14.22;70.25;95435.78;5062922;28;20195;-77
2024/03/14 10:31:41;;;;;;;2.00;1.60;;;;;;;14.16;68.66;95439.94;5077350;28;20290;-77
2024/03/14 10:34:07;;;;;;;0.97;0.90;;;;;;;14.42;69.41;95439.59;5076089;28;20180;-77
2024/03/14 10:36:39;;;;;;;10.03;1.23;;;;;;;14.29;68.57;95440.16;5076630;28;20228;-77
2024/03/14 10:39:04;;;;;;;2.50;1.00;;;;;;;14.42;67.62;95440.41;5060476;28;20188;-76
2024/03/14 10:41:31;;;;;;;0.77;0.73;;;;;;;14.09;66.32;95431.16;5074482;28;20189;-76
2024/03/14 10:43:58;;;;;;;0.87;0.70;;;;;;;14.28;65.58;95433.31;5075305;28;20196;-77
2024/03/14 10:46:24;;;;;;;1.00;0.90;;;;;;;14.33;65.14;95431.00;5075429;28;20274;-77
2024/03/14 10:48:49;;;;;;;0.77;0.73;;;;;;;14.53;66.31;95427.97;5075129;28;20196;-77
2024/03/14 10:51:16;;;;;;;0.70;0.70;;;;;;;14.73;65.44;95432.53;5073888;28;20208;-77
2024/03/14 10:53:41;;;;;;;2.40;0.80;;;;;;;14.71;65.02;95420.63;5062526;28;20208;-77
2024/03/14 10:56:16;;;;;;;1.90;1.00;;;;;;;14.70;65.57;95429.47;5061000;28;20232;-77
2024/03/14 10:58:43;;;;;;;1.60;0.70;;;;;;;14.95;63.70;95428.28;5077957;28;20192;-77
2024/03/14 11:01:10;;;;;;;1.10;0.90;;;;;;;15.09;64.20;95420.59;5063278;28;20189;-77
2024/03/14 11:03:38;;;;;;;0.90;0.90;;;;;;;14.72;63.34;95423.06;5075824;28;20238;-78
2024/03/14 11:06:04;;;;;;;0.90;0.90;;;;;;;14.58;64.57;95425.66;5068050;28;20216;-78
2024/03/14 11:08:30;;;;;;;0.90;0.87;;;;;;;14.53;64.51;95417.50;5058991;28;20197;-78
2024/03/14 11:10:57;;;;;;;0.67;0.67;;;;;;;14.77;63.96;95422.53;5055878;28;20192;-78
2024/03/14 11:13:25;;;;;;;0.93;0.93;;;;;;;14.80;63.86;95427.41;5071722;28;20192;-77
2024/03/14 11:15:56;;;;;;;3.83;1.03;;;;;;;14.75;64.37;95419.28;5077957;28;20192;-76
2024/03/14 11:18:25;;;;;;;1.20;1.00;;;;;;;15.15;62.78;95422.53;5073349;28;20193;-76
2024/03/14 11:20:54;;;;;;;0.80;0.80;;;;;;;15.18;62.96;95416.91;5078120;28;20234;-77
2024/03/14 11:23:25;;;;;;;1.20;1.10;;;;;;;15.37;63.28;95411.19;5058768;28;20188;-77
2024/03/14 11:25:55;;;;;;;1.57;1.20;;;;;;;15.44;62.82;95409.44;5062764;28;20219;-77
2024/03/14 11:28:21;;;;;;;2.03;1.20;;;;;;;15.63;62.00;95412.53;5068118;28;20184;-75
2024/03/14 11:31:06;;;;;;;1.73;1.30;;;;;;;15.31;61.39;95409.28;5058826;28;20424;-77
2024/03/14 11:33:32;;;;;;;1.20;1.00;;;;;;;15.08;61.50;95417.19;5071072;28;20177;-76
2024/03/14 11:35:58;;;;;;;1.00;0.90;;;;;;;15.34;61.09;95402.88;5089746;28;20212;-76